sensor_id;sensor_type;location;lat;lon;timestamp;temperature;humidity
10046;DHT22;5063;50.878;4.742;2024-03-08T00:00:20;5.00;99.90
10046;DHT22;5063;50.878;4.742;2024-03-08T00:02:46;4.60;99.90
10046;DHT22;5063;50.878;4.742;2024-03-08T00:05:13;5.00;99.90
10046;DHT22;5063;50.878;4.742;2024-03-08T00:07:40;5.00;99.90
10046;DHT22;5063;50.878;4.742;2024-03-08T00:10:08;4.90;99.90
10046;DHT22;5063;50.878;4.742;2024-03-08T00:12:46;4.90;99.90
10046;DHT22;5063;50.878;4.742;2024-03-08T00:15:16;4.90;99.90
10046;DHT22;5063;50.878;4.742;2024-03-08T00:17:42;4.90;99.90
10046;DHT22;5063;50.878;4.742;2024-03-08T00:20:08;4.80;99.90
10046;DHT22;5063;50.878;4.742;2024-03-08T00:22:35;4.80;99.90
10046;DHT22;5063;50.878;4.742;2024-03-08T00:25:02;4.80;99.90
10046;DHT22;5063;50.878;4.742;2024-03-08T00:27:28;5.00;99.90
10046;DHT22;5063;50.878;4.742;2024-03-08T00:29:56;4.90;99.90
10046;DHT22;5063;50.878;4.742;2024-03-08T00:32:22;4.90;99.90
10046;DHT22;5063;50.878;4.742;2024-03-08T00:34:51;4.90;99.90
10046;DHT22;5063;50.878;4.742;2024-03-08T00:37:20;4.90;99.90
10046;DHT22;5063;50.878;4.742;2024-03-08T00:39:48;4.90;99.90
10046;DHT22;5063;50.878;4.742;2024-03-08T00:42:18;4.90;99.90
10046;DHT22;5063;50.878;4.742;2024-03-08T00:44:44;4.90;99.90
10046;DHT22;5063;50.878;4.742;2024-03-08T00:47:10;4.90;99.90
10046;DHT22;5063;50.878;4.742;2024-03-08T00:49:36;4.80;99.90
10046;DHT22;5063;50.878;4.742;2024-03-08T00:52:07;5.00;99.90
10046;DHT22;5063;50.878;4.742;2024-03-08T00:54:34;4.90;99.90
10046;DHT22;5063;50.878;4.742;2024-03-08T00:57:01;4.80;99.90
10046;DHT22;5063;50.878;4.742;2024-03-08T00:59:31;4.90;99.90
10046;DHT22;5063;50.878;4.742;2024-03-08T01:01:58;4.90;99.90
10046;DHT22;5063;50.878;4.742;2024-03-08T01:04:25;4.50;99.90
10046;DHT22;5063;50.878;4.742;2024-03-08T01:06:57;4.70;99.90
10046;DHT22;5063;50.878;4.742;2024-03-08T01:09:24;4.70;99.90
10046;DHT22;5063;50.878;4.742;2024-03-08T01:11:50;4.60;99.90
10046;DHT22;5063;50.878;4.742;2024-03-08T01:14:16;4.60;99.90
10046;DHT22;5063;50.878;4.742;2024-03-08T01:16:42;4.70;99.90
10046;DHT22;5063;50.878;4.742;2024-03-08T01:19:07;4.60;99.90
10046;DHT22;5063;50.878;4.742;2024-03-08T01:21:34;4.40;99.90
10046;DHT22;5063;50.878;4.742;2024-03-08T01:24:00;4.60;99.90
10046;DHT22;5063;50.878;4.742;2024-03-08T01:26:26;4.50;99.90
10046;DHT22;5063;50.878;4.742;2024-03-08T01:28:51;4.50;99.90
10046;DHT22;5063;50.878;4.742;2024-03-08T01:31:17;4.50;99.90
10046;DHT22;5063;50.878;4.742;2024-03-08T01:33:43;4.50;99.90
10046;DHT22;5063;50.878;4.742;2024-03-08T01:36:08;4.40;99.90
10046;DHT22;5063;50.878;4.742;2024-03-08T01:38:34;4.30;99.90
10046;DHT22;5063;50.878;4.742;2024-03-08T01:41:01;4.30;99.90
10046;DHT22;5063;50.878;4.742;2024-03-08T01:43:29;4.40;99.90
10046;DHT22;5063;50.878;4.742;2024-03-08T01:45:57;4.30;99.90
10046;DHT22;5063;50.878;4.742;2024-03-08T01:48:24;4.30;99.90
10046;DHT22;5063;50.878;4.742;2024-03-08T01:50:50;4.60;99.90
10046;DHT22;5063;50.878;4.742;2024-03-08T01:53:18;4.30;99.90
10046;DHT22;5063;50.878;4.742;2024-03-08T01:55:48;4.30;99.90
10046;DHT22;5063;50.878;4.742;2024-03-08T01:58:15;4.50;99.90
10046;DHT22;5063;50.878;4.742;2024-03-08T02:00:43;4.30;99.90
10046;DHT22;5063;50.878;4.742;2024-03-08T02:03:10;4.30;99.90
10046;DHT22;5063;50.878;4.742;2024-03-08T02:05:40;4.30;99.90
10046;DHT22;5063;50.878;4.742;2024-03-08T02:08:08;4.20;99.90
10046;DHT22;5063;50.878;4.742;2024-03-08T02:10:38;4.20;99.90
10046;DHT22;5063;50.878;4.742;2024-03-08T02:13:05;4.20;99.90
10046;DHT22;5063;50.878;4.742;2024-03-08T02:18:15;4.10;99.90
10046;DHT22;5063;50.878;4.742;2024-03-08T02:20:43;4.10;99.90
10046;DHT22;5063;50.878;4.742;2024-03-08T02:23:09;4.30;99.90
10046;DHT22;5063;50.878;4.742;2024-03-08T02:25:35;4.10;99.90
10046;DHT22;5063;50.878;4.742;2024-03-08T02:28:01;4.10;99.90
10046;DHT22;5063;50.878;4.742;2024-03-08T02:30:27;4.20;99.90
10046;DHT22;5063;50.878;4.742;2024-03-08T02:32:55;4.10;99.90
10046;DHT22;5063;50.878;4.742;2024-03-08T02:35:21;4.00;99.90
10046;DHT22;5063;50.878;4.742;2024-03-08T02:37:47;4.00;99.90
10046;DHT22;5063;50.878;4.742;2024-03-08T02:40:13;4.00;99.90
10046;DHT22;5063;50.878;4.742;2024-03-08T02:42:39;4.00;99.90
10046;DHT22;5063;50.878;4.742;2024-03-08T02:45:05;3.90;99.90
10046;DHT22;5063;50.878;4.742;2024-03-08T02:47:31;3.90;99.90
10046;DHT22;5063;50.878;4.742;2024-03-08T02:49:57;3.90;99.90
10046;DHT22;5063;50.878;4.742;2024-03-08T02:52:23;3.80;99.90
10046;DHT22;5063;50.878;4.742;2024-03-08T02:54:49;3.80;99.90
10046;DHT22;5063;50.878;4.742;2024-03-08T02:57:15;3.80;99.90
10046;DHT22;5063;50.878;4.742;2024-03-08T02:59:41;3.90;99.90
10046;DHT22;5063;50.878;4.742;2024-03-08T03:02:07;3.70;99.90
10046;DHT22;5063;50.878;4.742;2024-03-08T03:04:35;3.90;99.90
10046;DHT22;5063;50.878;4.742;2024-03-08T03:07:01;3.70;99.90
10046;DHT22;5063;50.878;4.742;2024-03-08T03:09:27;3.60;99.90
10046;DHT22;5063;50.878;4.742;2024-03-08T03:11:54;3.50;99.90
10046;DHT22;5063;50.878;4.742;2024-03-08T03:14:23;3.60;99.90
10046;DHT22;5063;50.878;4.742;2024-03-08T03:16:49;3.60;99.90
10046;DHT22;5063;50.878;4.742;2024-03-08T03:19:15;3.60;99.90
10046;DHT22;5063;50.878;4.742;2024-03-08T03:21:41;3.80;99.90
10046;DHT22;5063;50.878;4.742;2024-03-08T03:24:09;3.50;99.90
10046;DHT22;5063;50.878;4.742;2024-03-08T03:26:39;3.60;99.90
10046;DHT22;5063;50.878;4.742;2024-03-08T03:29:06;3.60;99.90
10046;DHT22;5063;50.878;4.742;2024-03-08T03:31:34;3.80;99.90
10046;DHT22;5063;50.878;4.742;2024-03-08T03:34:00;3.90;99.90
10046;DHT22;5063;50.878;4.742;2024-03-08T03:36:32;3.50;99.90
10046;DHT22;5063;50.878;4.742;2024-03-08T03:39:01;3.50;99.90
10046;DHT22;5063;50.878;4.742;2024-03-08T03:41:38;3.60;99.90
10046;DHT22;5063;50.878;4.742;2024-03-08T03:44:05;3.50;99.90
10046;DHT22;5063;50.878;4.742;2024-03-08T03:46:32;3.50;99.90
10046;DHT22;5063;50.878;4.742;2024-03-08T03:48:58;3.50;99.90
10046;DHT22;5063;50.878;4.742;2024-03-08T03:51:24;3.40;99.90
10046;DHT22;5063;50.878;4.742;2024-03-08T03:53:51;3.40;99.90
10046;DHT22;5063;50.878;4.742;2024-03-08T03:56:16;3.60;99.90
10046;DHT22;5063;50.878;4.742;2024-03-08T03:58:42;3.80;99.90
10046;DHT22;5063;50.878;4.742;2024-03-08T04:01:08;3.70;99.90
10046;DHT22;5063;50.878;4.742;2024-03-08T04:03:35;3.40;99.90
10046;DHT22;5063;50.878;4.742;2024-03-08T04:06:05;3.50;99.90
10046;DHT22;5063;50.878;4.742;2024-03-08T04:08:31;3.40;99.90
10046;DHT22;5063;50.878;4.742;2024-03-08T04:11:00;3.30;99.90
10046;DHT22;5063;50.878;4.742;2024-03-08T04:13:26;3.30;99.90
10046;DHT22;5063;50.878;4.742;2024-03-08T04:15:52;3.40;99.90
10046;DHT22;5063;50.878;4.742;2024-03-08T04:18:17;3.30;99.90
10046;DHT22;5063;50.878;4.742;2024-03-08T04:20:46;3.30;99.90
10046;DHT22;5063;50.878;4.742;2024-03-08T04:23:12;3.20;99.90
10046;DHT22;5063;50.878;4.742;2024-03-08T04:25:38;3.30;99.90
10046;DHT22;5063;50.878;4.742;2024-03-08T04:28:04;3.30;99.90
10046;DHT22;5063;50.878;4.742;2024-03-08T04:30:29;3.30;99.90
10046;DHT22;5063;50.878;4.742;2024-03-08T04:32:55;3.40;99.90
10046;DHT22;5063;50.878;4.742;2024-03-08T04:35:21;3.20;99.90
10046;DHT22;5063;50.878;4.742;2024-03-08T04:37:47;3.20;99.90
10046;DHT22;5063;50.878;4.742;2024-03-08T04:40:13;3.40;99.90
10046;DHT22;5063;50.878;4.742;2024-03-08T04:42:41;3.40;99.90
10046;DHT22;5063;50.878;4.742;2024-03-08T04:45:09;3.20;99.90
10046;DHT22;5063;50.878;4.742;2024-03-08T04:47:36;3.30;99.90
10046;DHT22;5063;50.878;4.742;2024-03-08T04:50:02;3.10;99.90
10046;DHT22;5063;50.878;4.742;2024-03-08T04:52:30;3.10;99.90
10046;DHT22;5063;50.878;4.742;2024-03-08T04:54:55;3.30;99.90
10046;DHT22;5063;50.878;4.742;2024-03-08T04:57:21;3.00;99.90
10046;DHT22;5063;50.878;4.742;2024-03-08T04:59:47;3.00;99.90
10046;DHT22;5063;50.878;4.742;2024-03-08T05:02:13;3.20;99.90
10046;DHT22;5063;50.878;4.742;2024-03-08T05:04:39;3.00;99.90
10046;DHT22;5063;50.878;4.742;2024-03-08T05:07:05;3.30;99.90
10046;DHT22;5063;50.878;4.742;2024-03-08T05:09:31;3.00;99.90
10046;DHT22;5063;50.878;4.742;2024-03-08T05:11:57;3.00;99.90
10046;DHT22;5063;50.878;4.742;2024-03-08T05:14:25;3.10;99.90
10046;DHT22;5063;50.878;4.742;2024-03-08T05:16:51;2.90;99.90
10046;DHT22;5063;50.878;4.742;2024-03-08T05:19:17;3.00;99.90
10046;DHT22;5063;50.878;4.742;2024-03-08T05:21:44;3.00;99.90
10046;DHT22;5063;50.878;4.742;2024-03-08T05:24:10;3.00;99.90
10046;DHT22;5063;50.878;4.742;2024-03-08T05:26:36;3.00;99.90
10046;DHT22;5063;50.878;4.742;2024-03-08T05:29:05;2.90;99.90
10046;DHT22;5063;50.878;4.742;2024-03-08T05:31:43;3.20;99.90
10046;DHT22;5063;50.878;4.742;2024-03-08T05:34:11;2.90;99.90
10046;DHT22;5063;50.878;4.742;2024-03-08T05:36:40;2.80;99.90
10046;DHT22;5063;50.878;4.742;2024-03-08T05:39:06;2.90;99.90
10046;DHT22;5063;50.878;4.742;2024-03-08T05:41:32;2.90;99.90
10046;DHT22;5063;50.878;4.742;2024-03-08T05:43:58;2.80;99.90
10046;DHT22;5063;50.878;4.742;2024-03-08T05:46:24;2.80;99.90
10046;DHT22;5063;50.878;4.742;2024-03-08T05:48:51;2.90;99.90
10046;DHT22;5063;50.878;4.742;2024-03-08T05:51:16;2.70;99.90
10046;DHT22;5063;50.878;4.742;2024-03-08T05:53:42;2.80;99.90
10046;DHT22;5063;50.878;4.742;2024-03-08T05:56:08;2.70;99.90
10046;DHT22;5063;50.878;4.742;2024-03-08T05:58:35;2.80;99.90
10046;DHT22;5063;50.878;4.742;2024-03-08T06:01:00;2.70;99.90
10046;DHT22;5063;50.878;4.742;2024-03-08T06:03:26;2.90;99.90
10046;DHT22;5063;50.878;4.742;2024-03-08T06:05:52;2.90;99.90
10046;DHT22;5063;50.878;4.742;2024-03-08T06:08:18;2.90;99.90
10046;DHT22;5063;50.878;4.742;2024-03-08T06:10:44;2.90;99.90
10046;DHT22;5063;50.878;4.742;2024-03-08T06:13:10;2.70;99.90
10046;DHT22;5063;50.878;4.742;2024-03-08T06:15:37;2.70;99.90
10046;DHT22;5063;50.878;4.742;2024-03-08T06:18:03;2.90;99.90
10046;DHT22;5063;50.878;4.742;2024-03-08T06:20:31;2.90;99.90
10046;DHT22;5063;50.878;4.742;2024-03-08T06:22:57;2.70;99.90
10046;DHT22;5063;50.878;4.742;2024-03-08T06:25:22;2.80;99.90
10046;DHT22;5063;50.878;4.742;2024-03-08T06:27:48;2.70;99.90
10046;DHT22;5063;50.878;4.742;2024-03-08T06:30:14;2.90;99.90
10046;DHT22;5063;50.878;4.742;2024-03-08T06:32:41;2.80;99.90
10046;DHT22;5063;50.878;4.742;2024-03-08T06:35:08;2.80;99.90
10046;DHT22;5063;50.878;4.742;2024-03-08T06:37:36;2.90;99.90
10046;DHT22;5063;50.878;4.742;2024-03-08T06:40:02;3.10;99.90
10046;DHT22;5063;50.878;4.742;2024-03-08T06:42:29;2.90;99.90
10046;DHT22;5063;50.878;4.742;2024-03-08T06:44:57;3.10;99.90
10046;DHT22;5063;50.878;4.742;2024-03-08T06:47:30;3.10;99.90
10046;DHT22;5063;50.878;4.742;2024-03-08T06:49:55;3.20;99.90
10046;DHT22;5063;50.878;4.742;2024-03-08T06:52:21;3.20;99.90
10046;DHT22;5063;50.878;4.742;2024-03-08T06:54:48;3.10;99.90
10046;DHT22;5063;50.878;4.742;2024-03-08T06:57:14;3.30;99.90
10046;DHT22;5063;50.878;4.742;2024-03-08T06:59:42;3.40;99.90
10046;DHT22;5063;50.878;4.742;2024-03-08T07:02:08;3.80;99.90
10046;DHT22;5063;50.878;4.742;2024-03-08T07:04:35;3.90;99.90
10046;DHT22;5063;50.878;4.742;2024-03-08T07:07:07;4.10;99.90
10046;DHT22;5063;50.878;4.742;2024-03-08T07:09:38;4.60;99.90
10046;DHT22;5063;50.878;4.742;2024-03-08T07:12:04;4.90;99.90
10046;DHT22;5063;50.878;4.742;2024-03-08T07:14:30;5.40;99.90
10046;DHT22;5063;50.878;4.742;2024-03-08T07:16:58;5.70;99.90
10046;DHT22;5063;50.878;4.742;2024-03-08T07:19:24;6.20;99.90
10046;DHT22;5063;50.878;4.742;2024-03-08T07:21:50;6.60;99.90
10046;DHT22;5063;50.878;4.742;2024-03-08T07:24:16;6.70;99.90
10046;DHT22;5063;50.878;4.742;2024-03-08T07:27:04;6.90;99.90
10046;DHT22;5063;50.878;4.742;2024-03-08T07:29:31;7.10;99.90
10046;DHT22;5063;50.878;4.742;2024-03-08T07:31:56;7.40;99.90
10046;DHT22;5063;50.878;4.742;2024-03-08T07:34:28;7.80;99.90
10046;DHT22;5063;50.878;4.742;2024-03-08T07:36:58;7.90;99.90
10046;DHT22;5063;50.878;4.742;2024-03-08T07:39:24;8.10;99.90
10046;DHT22;5063;50.878;4.742;2024-03-08T07:41:50;8.60;99.90
10046;DHT22;5063;50.878;4.742;2024-03-08T07:44:18;8.70;99.90
10046;DHT22;5063;50.878;4.742;2024-03-08T07:46:44;8.70;99.90
10046;DHT22;5063;50.878;4.742;2024-03-08T07:49:10;8.70;99.90
10046;DHT22;5063;50.878;4.742;2024-03-08T07:51:40;8.60;99.90
10046;DHT22;5063;50.878;4.742;2024-03-08T07:54:07;8.60;99.90
10046;DHT22;5063;50.878;4.742;2024-03-08T07:56:35;8.50;99.90
10046;DHT22;5063;50.878;4.742;2024-03-08T07:59:02;8.50;99.90
10046;DHT22;5063;50.878;4.742;2024-03-08T08:01:30;8.20;99.90
10046;DHT22;5063;50.878;4.742;2024-03-08T08:03:56;7.70;99.90
10046;DHT22;5063;50.878;4.742;2024-03-08T08:06:22;7.10;99.90
10046;DHT22;5063;50.878;4.742;2024-03-08T08:08:49;6.60;99.90
10046;DHT22;5063;50.878;4.742;2024-03-08T08:11:14;6.70;99.90
10046;DHT22;5063;50.878;4.742;2024-03-08T08:13:42;6.40;99.90
10046;DHT22;5063;50.878;4.742;2024-03-08T08:16:09;6.40;99.90
10046;DHT22;5063;50.878;4.742;2024-03-08T08:18:36;6.70;99.90
10046;DHT22;5063;50.878;4.742;2024-03-08T08:21:05;6.50;99.90
10046;DHT22;5063;50.878;4.742;2024-03-08T08:23:32;6.50;99.90
10046;DHT22;5063;50.878;4.742;2024-03-08T08:25:58;6.50;99.90
10046;DHT22;5063;50.878;4.742;2024-03-08T08:28:24;6.60;99.90
10046;DHT22;5063;50.878;4.742;2024-03-08T08:30:50;6.60;99.90
10046;DHT22;5063;50.878;4.742;2024-03-08T08:33:16;6.80;99.90
10046;DHT22;5063;50.878;4.742;2024-03-08T08:35:42;6.80;99.90
10046;DHT22;5063;50.878;4.742;2024-03-08T08:38:08;6.70;99.90
10046;DHT22;5063;50.878;4.742;2024-03-08T08:40:34;6.90;99.90
10046;DHT22;5063;50.878;4.742;2024-03-08T08:43:02;6.70;99.90
10046;DHT22;5063;50.878;4.742;2024-03-08T08:45:30;7.30;99.90
10046;DHT22;5063;50.878;4.742;2024-03-08T08:47:56;7.50;99.90
10046;DHT22;5063;50.878;4.742;2024-03-08T08:50:24;7.50;99.90
10046;DHT22;5063;50.878;4.742;2024-03-08T08:52:51;7.60;99.90
10046;DHT22;5063;50.878;4.742;2024-03-08T08:55:16;7.90;99.90
10046;DHT22;5063;50.878;4.742;2024-03-08T08:57:46;8.40;99.90
10046;DHT22;5063;50.878;4.742;2024-03-08T09:00:13;9.40;99.90
10046;DHT22;5063;50.878;4.742;2024-03-08T09:02:42;9.70;99.90
10046;DHT22;5063;50.878;4.742;2024-03-08T09:05:08;10.00;99.90
10046;DHT22;5063;50.878;4.742;2024-03-08T09:07:33;10.50;99.90
10046;DHT22;5063;50.878;4.742;2024-03-08T09:10:03;10.30;99.90
10046;DHT22;5063;50.878;4.742;2024-03-08T09:12:29;9.50;99.90
10046;DHT22;5063;50.878;4.742;2024-03-08T09:14:55;8.60;99.90
10046;DHT22;5063;50.878;4.742;2024-03-08T09:17:21;8.20;99.90
10046;DHT22;5063;50.878;4.742;2024-03-08T09:19:47;7.90;99.90
10046;DHT22;5063;50.878;4.742;2024-03-08T09:22:13;7.80;99.90
10046;DHT22;5063;50.878;4.742;2024-03-08T09:24:39;7.70;99.90
10046;DHT22;5063;50.878;4.742;2024-03-08T09:27:05;8.00;99.90
10046;DHT22;5063;50.878;4.742;2024-03-08T09:29:31;7.90;99.90
10046;DHT22;5063;50.878;4.742;2024-03-08T09:31:57;7.90;99.90
10046;DHT22;5063;50.878;4.742;2024-03-08T09:34:23;7.90;99.90
10046;DHT22;5063;50.878;4.742;2024-03-08T09:36:49;8.10;99.90
10046;DHT22;5063;50.878;4.742;2024-03-08T09:39:17;8.10;99.90
10046;DHT22;5063;50.878;4.742;2024-03-08T09:41:47;8.10;99.90
10046;DHT22;5063;50.878;4.742;2024-03-08T09:44:16;8.30;99.90
10046;DHT22;5063;50.878;4.742;2024-03-08T09:46:48;8.30;99.90
10046;DHT22;5063;50.878;4.742;2024-03-08T09:49:16;8.50;99.90
10046;DHT22;5063;50.878;4.742;2024-03-08T09:51:42;8.50;99.90
10046;DHT22;5063;50.878;4.742;2024-03-08T09:54:08;8.50;99.90
10046;DHT22;5063;50.878;4.742;2024-03-08T09:56:39;8.40;99.90
10046;DHT22;5063;50.878;4.742;2024-03-08T09:59:10;8.40;99.90
10046;DHT22;5063;50.878;4.742;2024-03-08T10:02:14;8.50;99.90
10046;DHT22;5063;50.878;4.742;2024-03-08T10:04:41;8.60;99.90
10046;DHT22;5063;50.878;4.742;2024-03-08T10:07:12;8.60;99.90
10046;DHT22;5063;50.878;4.742;2024-03-08T10:09:38;8.40;99.90
10046;DHT22;5063;50.878;4.742;2024-03-08T10:12:05;8.50;99.90
10046;DHT22;5063;50.878;4.742;2024-03-08T10:14:31;8.70;99.90
10046;DHT22;5063;50.878;4.742;2024-03-08T10:17:00;8.60;99.90
10046;DHT22;5063;50.878;4.742;2024-03-08T10:19:27;8.50;99.90
10046;DHT22;5063;50.878;4.742;2024-03-08T10:21:55;8.50;99.90
10046;DHT22;5063;50.878;4.742;2024-03-08T10:24:25;8.40;99.90
10046;DHT22;5063;50.878;4.742;2024-03-08T10:27:01;8.70;99.90
10046;DHT22;5063;50.878;4.742;2024-03-08T10:29:33;8.80;99.90
10046;DHT22;5063;50.878;4.742;2024-03-08T10:31:59;8.90;99.90
10046;DHT22;5063;50.878;4.742;2024-03-08T10:34:25;8.90;99.90
10046;DHT22;5063;50.878;4.742;2024-03-08T10:36:51;9.00;99.90
10046;DHT22;5063;50.878;4.742;2024-03-08T10:39:21;8.90;99.90
10046;DHT22;5063;50.878;4.742;2024-03-08T10:42:02;9.10;99.90
10046;DHT22;5063;50.878;4.742;2024-03-08T10:47:27;9.30;99.90
10046;DHT22;5063;50.878;4.742;2024-03-08T10:50:20;9.30;99.90
10046;DHT22;5063;50.878;4.742;2024-03-08T10:52:49;9.20;99.90
10046;DHT22;5063;50.878;4.742;2024-03-08T10:55:16;9.40;99.90
10046;DHT22;5063;50.878;4.742;2024-03-08T10:57:43;9.40;99.90
10046;DHT22;5063;50.878;4.742;2024-03-08T11:00:10;9.50;99.90
10046;DHT22;5063;50.878;4.742;2024-03-08T11:02:37;9.70;99.90
10046;DHT22;5063;50.878;4.742;2024-03-08T11:05:10;9.60;99.90
10046;DHT22;5063;50.878;4.742;2024-03-08T11:07:42;9.40;99.90
10046;DHT22;5063;50.878;4.742;2024-03-08T11:10:19;9.40;99.90
10046;DHT22;5063;50.878;4.742;2024-03-08T11:12:45;9.60;99.90
10046;DHT22;5063;50.878;4.742;2024-03-08T11:15:14;9.70;99.90
10046;DHT22;5063;50.878;4.742;2024-03-08T11:17:50;9.80;99.90
10046;DHT22;5063;50.878;4.742;2024-03-08T11:20:20;9.80;99.90
10046;DHT22;5063;50.878;4.742;2024-03-08T11:22:52;9.80;99.90
10046;DHT22;5063;50.878;4.742;2024-03-08T11:25:37;9.80;99.90
10046;DHT22;5063;50.878;4.742;2024-03-08T11:28:20;9.90;99.90
10046;DHT22;5063;50.878;4.742;2024-03-08T11:33:29;10.00;99.90
10046;DHT22;5063;50.878;4.742;2024-03-08T11:38:44;10.20;99.90
10046;DHT22;5063;50.878;4.742;2024-03-08T11:41:10;10.30;99.90
10046;DHT22;5063;50.878;4.742;2024-03-08T11:43:40;10.20;99.90
10046;DHT22;5063;50.878;4.742;2024-03-08T11:46:11;10.40;99.90
10046;DHT22;5063;50.878;4.742;2024-03-08T11:48:41;10.50;99.90
10046;DHT22;5063;50.878;4.742;2024-03-08T11:51:13;10.50;99.90
10046;DHT22;5063;50.878;4.742;2024-03-08T11:53:40;10.60;99.90
10046;DHT22;5063;50.878;4.742;2024-03-08T11:56:11;10.70;99.90
10046;DHT22;5063;50.878;4.742;2024-03-08T11:58:41;10.70;99.90
10046;DHT22;5063;50.878;4.742;2024-03-08T12:01:10;10.80;99.90
10046;DHT22;5063;50.878;4.742;2024-03-08T12:03:41;10.80;99.90
10046;DHT22;5063;50.878;4.742;2024-03-08T12:06:10;10.90;99.90
10046;DHT22;5063;50.878;4.742;2024-03-08T12:08:36;11.10;99.90
10046;DHT22;5063;50.878;4.742;2024-03-08T12:11:05;11.10;99.90
10046;DHT22;5063;50.878;4.742;2024-03-08T12:13:34;11.20;99.90
10046;DHT22;5063;50.878;4.742;2024-03-08T12:16:03;11.30;99.90
10046;DHT22;5063;50.878;4.742;2024-03-08T12:18:33;11.30;99.90
10046;DHT22;5063;50.878;4.742;2024-03-08T12:21:13;11.40;99.90
10046;DHT22;5063;50.878;4.742;2024-03-08T12:24:06;11.40;99.90
10046;DHT22;5063;50.878;4.742;2024-03-08T12:26:35;11.50;99.90
10046;DHT22;5063;50.878;4.742;2024-03-08T12:29:23;11.50;99.90
10046;DHT22;5063;50.878;4.742;2024-03-08T12:31:54;11.50;99.90
10046;DHT22;5063;50.878;4.742;2024-03-08T12:34:21;11.50;99.90
10046;DHT22;5063;50.878;4.742;2024-03-08T12:36:48;11.60;99.90
10046;DHT22;5063;50.878;4.742;2024-03-08T12:39:16;11.60;99.90
10046;DHT22;5063;50.878;4.742;2024-03-08T12:41:43;11.70;99.90
10046;DHT22;5063;50.878;4.742;2024-03-08T12:44:09;11.80;99.90
10046;DHT22;5063;50.878;4.742;2024-03-08T12:46:40;11.80;99.90
10046;DHT22;5063;50.878;4.742;2024-03-08T12:49:09;11.90;99.90
10046;DHT22;5063;50.878;4.742;2024-03-08T12:51:38;12.00;99.90
10046;DHT22;5063;50.878;4.742;2024-03-08T12:54:07;12.00;99.90
10046;DHT22;5063;50.878;4.742;2024-03-08T12:56:34;12.10;99.90
10046;DHT22;5063;50.878;4.742;2024-03-08T12:59:01;12.10;99.90
10046;DHT22;5063;50.878;4.742;2024-03-08T13:01:28;12.00;99.90
10046;DHT22;5063;50.878;4.742;2024-03-08T13:03:54;12.00;99.90
10046;DHT22;5063;50.878;4.742;2024-03-08T13:06:24;12.00;99.90
10046;DHT22;5063;50.878;4.742;2024-03-08T13:08:50;12.10;99.90
10046;DHT22;5063;50.878;4.742;2024-03-08T13:11:21;12.20;99.90
10046;DHT22;5063;50.878;4.742;2024-03-08T13:13:47;12.30;99.90
10046;DHT22;5063;50.878;4.742;2024-03-08T13:16:13;12.30;99.90
10046;DHT22;5063;50.878;4.742;2024-03-08T13:18:43;12.40;99.90
10046;DHT22;5063;50.878;4.742;2024-03-08T13:21:12;12.50;99.90
10046;DHT22;5063;50.878;4.742;2024-03-08T13:23:41;12.50;99.90
10046;DHT22;5063;50.878;4.742;2024-03-08T13:26:12;12.50;99.90
10046;DHT22;5063;50.878;4.742;2024-03-08T13:28:50;12.50;99.90
10046;DHT22;5063;50.878;4.742;2024-03-08T13:31:22;12.50;99.90
10046;DHT22;5063;50.878;4.742;2024-03-08T13:33:48;12.50;99.90
10046;DHT22;5063;50.878;4.742;2024-03-08T13:36:14;12.50;99.90
10046;DHT22;5063;50.878;4.742;2024-03-08T13:38:49;12.50;99.90
10046;DHT22;5063;50.878;4.742;2024-03-08T13:41:17;12.70;99.90
10046;DHT22;5063;50.878;4.742;2024-03-08T13:43:47;12.70;99.90
10046;DHT22;5063;50.878;4.742;2024-03-08T13:46:16;12.70;99.90
10046;DHT22;5063;50.878;4.742;2024-03-08T13:48:42;12.80;99.90
10046;DHT22;5063;50.878;4.742;2024-03-08T13:51:08;12.90;99.90
10046;DHT22;5063;50.878;4.742;2024-03-08T13:53:37;12.90;99.90
10046;DHT22;5063;50.878;4.742;2024-03-08T13:56:03;12.90;99.90
10046;DHT22;5063;50.878;4.742;2024-03-08T13:58:30;13.00;99.90
10046;DHT22;5063;50.878;4.742;2024-03-08T14:00:57;13.00;99.90
10046;DHT22;5063;50.878;4.742;2024-03-08T14:03:22;13.00;99.90
10046;DHT22;5063;50.878;4.742;2024-03-08T14:05:51;12.90;99.90
10046;DHT22;5063;50.878;4.742;2024-03-08T14:08:17;13.00;99.90
10046;DHT22;5063;50.878;4.742;2024-03-08T14:10:44;13.10;99.90
10046;DHT22;5063;50.878;4.742;2024-03-08T14:13:12;13.10;99.90
10046;DHT22;5063;50.878;4.742;2024-03-08T14:15:39;13.20;99.90
10046;DHT22;5063;50.878;4.742;2024-03-08T14:18:08;13.20;99.90
10046;DHT22;5063;50.878;4.742;2024-03-08T14:20:34;13.20;99.90
10046;DHT22;5063;50.878;4.742;2024-03-08T14:23:00;13.30;99.90
10046;DHT22;5063;50.878;4.742;2024-03-08T14:25:25;13.00;99.90
10046;DHT22;5063;50.878;4.742;2024-03-08T14:27:52;13.20;99.90
10046;DHT22;5063;50.878;4.742;2024-03-08T14:30:20;13.20;99.90
10046;DHT22;5063;50.878;4.742;2024-03-08T14:33:05;13.10;99.90
10046;DHT22;5063;50.878;4.742;2024-03-08T14:35:37;13.20;99.90
10046;DHT22;5063;50.878;4.742;2024-03-08T14:38:04;13.20;99.90
10046;DHT22;5063;50.878;4.742;2024-03-08T14:40:30;13.20;99.90
10046;DHT22;5063;50.878;4.742;2024-03-08T14:42:56;13.10;99.90
10046;DHT22;5063;50.878;4.742;2024-03-08T14:45:22;13.20;99.90
10046;DHT22;5063;50.878;4.742;2024-03-08T14:47:50;13.20;99.90
10046;DHT22;5063;50.878;4.742;2024-03-08T14:50:23;13.30;99.90
10046;DHT22;5063;50.878;4.742;2024-03-08T14:52:50;13.30;99.90
10046;DHT22;5063;50.878;4.742;2024-03-08T14:55:20;13.30;99.90
10046;DHT22;5063;50.878;4.742;2024-03-08T14:57:48;13.20;99.90
10046;DHT22;5063;50.878;4.742;2024-03-08T15:00:17;13.10;99.90
10046;DHT22;5063;50.878;4.742;2024-03-08T15:02:53;13.10;99.90
10046;DHT22;5063;50.878;4.742;2024-03-08T15:05:19;13.10;99.90
10046;DHT22;5063;50.878;4.742;2024-03-08T15:07:47;13.00;99.90
10046;DHT22;5063;50.878;4.742;2024-03-08T15:10:13;13.00;99.90
10046;DHT22;5063;50.878;4.742;2024-03-08T15:12:40;13.00;99.90
10046;DHT22;5063;50.878;4.742;2024-03-08T15:15:07;13.10;99.90
10046;DHT22;5063;50.878;4.742;2024-03-08T15:17:34;13.10;99.90
10046;DHT22;5063;50.878;4.742;2024-03-08T15:20:00;13.10;99.90
10046;DHT22;5063;50.878;4.742;2024-03-08T15:22:26;13.20;99.90
10046;DHT22;5063;50.878;4.742;2024-03-08T15:24:52;13.20;99.90
10046;DHT22;5063;50.878;4.742;2024-03-08T15:27:18;13.20;99.90
10046;DHT22;5063;50.878;4.742;2024-03-08T15:29:44;13.30;99.90
10046;DHT22;5063;50.878;4.742;2024-03-08T15:32:14;13.30;99.90
10046;DHT22;5063;50.878;4.742;2024-03-08T15:34:46;13.30;99.90
10046;DHT22;5063;50.878;4.742;2024-03-08T15:37:11;13.20;99.90
10046;DHT22;5063;50.878;4.742;2024-03-08T15:39:43;13.20;99.90
10046;DHT22;5063;50.878;4.742;2024-03-08T15:42:09;13.30;99.90
10046;DHT22;5063;50.878;4.742;2024-03-08T15:44:37;13.40;99.90
10046;DHT22;5063;50.878;4.742;2024-03-08T15:47:04;13.40;99.90
10046;DHT22;5063;50.878;4.742;2024-03-08T15:49:33;13.30;99.90
10046;DHT22;5063;50.878;4.742;2024-03-08T15:51:59;13.30;99.90
10046;DHT22;5063;50.878;4.742;2024-03-08T15:54:24;13.30;99.90
10046;DHT22;5063;50.878;4.742;2024-03-08T15:56:51;13.30;99.90
10046;DHT22;5063;50.878;4.742;2024-03-08T15:59:17;13.30;99.90
10046;DHT22;5063;50.878;4.742;2024-03-08T16:01:43;13.30;99.90
10046;DHT22;5063;50.878;4.742;2024-03-08T16:04:14;13.40;99.90
10046;DHT22;5063;50.878;4.742;2024-03-08T16:06:40;13.30;99.90
10046;DHT22;5063;50.878;4.742;2024-03-08T16:09:06;13.30;99.90
10046;DHT22;5063;50.878;4.742;2024-03-08T16:11:41;13.30;99.90